Time;durP1;ratioP1;P1;durP2;ratioP2;P2;SDS_P1;SDS_P2;PMS_P1;PMS_P2;Temp;Humidity;BMP_temperature;BMP_pressure;BME280_temperature;BME280_humidity;BME280_pressure;Samples;Min_cycle;Max_cycle;Signal;HPM_P1;HPM_P2
2021/12/16 00:02:49;;;;;;;22.16;11.30;;;;;;;;;;347661;151;858211;-60
2021/12/16 00:08:33;;;;;;;21.64;11.60;;;;;;;;;;354421;148;866489;-58
2021/12/16 00:09:34;;;;;;;25.07;12.76;;;;;;;;;;353148;148;865666;-59
2021/12/16 00:10:35;;;;;;;22.88;11.54;;;;;;;;;;355476;148;858306;-59
2021/12/16 00:34:23;;;;;;;23.51;11.74;;;;;;;;;;316217;167;857832;-58
2021/12/16 00:35:24;;;;;;;22.03;11.70;;;;;;;;;;332124;156;857704;-59
2021/12/16 00:36:28;;;;;;;22.51;12.15;;;;;;;;;;335213;160;865662;-59
2021/12/16 00:37:30;;;;;;;23.05;12.14;;;;;;;;;;352095;149;857797;-58
2021/12/16 00:38:31;;;;;;;21.83;11.81;;;;;;;;;;354394;148;864151;-58
2021/12/16 00:39:34;;;;;;;21.94;11.12;;;;;;;;;;354356;149;857190;-59
2021/12/16 00:40:40;;;;;;;23.71;11.65;;;;;;;;;;354975;148;866459;-58
2021/12/16 00:41:41;;;;;;;23.99;12.06;;;;;;;;;;355264;148;857298;-59
2021/12/16 00:42:53;;;;;;;23.79;12.24;;;;;;;;;;353388;148;857254;-58
2021/12/16 00:43:59;;;;;;;22.26;12.21;;;;;;;;;;353060;149;859795;-59
2021/12/16 00:49:22;;;;;;;25.01;12.08;;;;;;;;;;355375;149;864986;-59
2021/12/16 00:54:11;;;;;;;24.33;12.00;;;;;;;;;;350620;149;859135;-58
2021/12/16 00:55:34;;;;;;;26.62;12.74;;;;;;;;;;354451;148;858627;-59
2021/12/16 00:56:17;;;;;;;24.99;12.97;;;;;;;;;;353678;148;857314;-59
2021/12/16 00:57:19;;;;;;;23.33;12.53;;;;;;;;;;353436;148;856840;-59
2021/12/16 00:58:25;;;;;;;22.97;12.46;;;;;;;;;;354803;148;865700;-59
2021/12/16 00:59:31;;;;;;;24.72;13.06;;;;;;;;;;354586;148;857248;-58
2021/12/16 01:00:31;;;;;;;24.18;13.61;;;;;;;;;;357133;148;857913;-58
2021/12/16 01:01:41;;;;;;;27.42;12.18;;;;;;;;;;356687;149;865284;-59
2021/12/16 01:02:52;;;;;;;26.22;13.36;;;;;;;;;;354543;148;857185;-58
2021/12/16 01:04:20;;;;;;;27.13;13.24;;;;;;;;;;351306;150;864696;-59
2021/12/16 01:07:24;;;;;;;25.67;13.56;;;;;;;;;;355459;148;857747;-58
2021/12/16 01:33:43;;;;;;;34.90;14.04;;;;;;;;;;353521;150;864950;-59
2021/12/16 01:34:49;;;;;;;33.05;14.73;;;;;;;;;;351143;150;857585;-57
2021/12/16 01:40:47;;;;;;;28.76;14.08;;;;;;;;;;353334;150;865457;-59
2021/12/16 01:45:48;;;;;;;27.99;13.49;;;;;;;;;;346189;150;865341;-59
2021/12/16 01:46:57;;;;;;;29.62;14.46;;;;;;;;;;337641;152;859075;-58
2021/12/16 01:49:11;;;;;;;39.79;17.30;;;;;;;;;;342947;154;859241;-59
2021/12/16 01:51:01;;;;;;;38.78;17.58;;;;;;;;;;343417;152;858888;-59
2021/12/16 01:55:30;;;;;;;31.76;15.12;;;;;;;;;;342344;153;858438;-58
2021/12/16 01:57:40;;;;;;;33.08;15.76;;;;;;;;;;341372;153;857008;-58
2021/12/16 01:58:38;;;;;;;36.52;15.80;;;;;;;;;;342065;154;857678;-58
2021/12/16 01:59:41;;;;;;;36.05;15.82;;;;;;;;;;341395;157;864972;-58
2021/12/16 02:01:31;;;;;;;36.53;16.54;;;;;;;;;;341606;157;865087;-59
2021/12/16 02:01:59;;;;;;;32.69;15.53;;;;;;;;;;333632;155;857572;-60
2021/12/16 02:03:01;;;;;;;37.71;15.72;;;;;;;;;;340836;157;857039;-59
2021/12/16 02:04:01;;;;;;;35.23;16.84;;;;;;;;;;338679;157;857286;-59
2021/12/16 02:05:18;;;;;;;36.68;17.29;;;;;;;;;;340917;153;857722;-59
2021/12/16 02:07:46;;;;;;;39.66;17.44;;;;;;;;;;342901;157;857801;-59
2021/12/16 02:08:32;;;;;;;34.20;16.73;;;;;;;;;;340056;153;857633;-59
2021/12/16 02:09:38;;;;;;;35.89;16.68;;;;;;;;;;341591;154;859360;-59
2021/12/16 02:10:41;;;;;;;37.99;16.42;;;;;;;;;;341088;157;865687;-59
2021/12/16 02:11:54;;;;;;;35.66;16.84;;;;;;;;;;341413;153;858565;-59
2021/12/16 02:13:10;;;;;;;35.89;16.22;;;;;;;;;;334504;157;857381;-58
2021/12/16 02:27:27;;;;;;;34.19;15.03;;;;;;;;;;340903;154;865060;-58
2021/12/16 02:34:21;;;;;;;37.24;16.41;;;;;;;;;;325101;162;866658;-58
2021/12/16 02:35:29;;;;;;;35.82;16.14;;;;;;;;;;324719;161;857721;-58
2021/12/16 02:36:26;;;;;;;34.88;15.16;;;;;;;;;;337088;153;857765;-58
2021/12/16 02:37:29;;;;;;;35.24;15.39;;;;;;;;;;340174;154;857938;-58
2021/12/16 02:38:30;;;;;;;35.94;16.04;;;;;;;;;;337756;157;857655;-58
2021/12/16 02:39:32;;;;;;;35.99;15.54;;;;;;;;;;340441;157;866702;-60
2021/12/16 02:40:34;;;;;;;36.42;14.91;;;;;;;;;;340894;153;857280;-60
2021/12/16 02:41:37;;;;;;;40.50;16.39;;;;;;;;;;340105;157;857711;-58
2021/12/16 02:42:53;;;;;;;39.58;15.80;;;;;;;;;;341830;154;864868;-60
2021/12/16 02:48:34;;;;;;;36.66;16.97;;;;;;;;;;341587;157;864850;-59
2021/12/16 02:49:35;;;;;;;37.64;15.78;;;;;;;;;;341048;156;858704;-59
2021/12/16 02:50:37;;;;;;;34.10;16.17;;;;;;;;;;335734;156;864244;-58
2021/12/16 02:51:38;;;;;;;41.26;16.58;;;;;;;;;;344789;152;864761;-59
2021/12/16 02:52:40;;;;;;;35.87;16.50;;;;;;;;;;354806;150;857287;-59
2021/12/16 02:53:46;;;;;;;34.46;16.25;;;;;;;;;;352010;148;857410;-58
2021/12/16 02:54:47;;;;;;;37.21;17.29;;;;;;;;;;349736;150;864947;-61
2021/12/16 02:55:49;;;;;;;40.23;16.81;;;;;;;;;;352097;152;857613;-58
2021/12/16 02:56:51;;;;;;;38.84;16.26;;;;;;;;;;345040;155;858817;-58
2021/12/16 02:58:00;;;;;;;36.67;16.05;;;;;;;;;;343853;151;865049;-59
2021/12/16 02:58:56;;;;;;;36.77;16.41;;;;;;;;;;343644;155;857386;-58
2021/12/16 02:59:57;;;;;;;38.04;16.51;;;;;;;;;;343836;154;859484;-59
2021/12/16 03:01:01;;;;;;;40.36;16.67;;;;;;;;;;337941;154;865002;-59
2021/12/16 03:02:07;;;;;;;38.33;16.74;;;;;;;;;;343783;153;857429;-58
2021/12/16 03:03:08;;;;;;;43.52;18.23;;;;;;;;;;345110;156;858092;-58
2021/12/16 03:04:11;;;;;;;36.65;16.61;;;;;;;;;;343845;151;858202;-58
2021/12/16 03:05:13;;;;;;;39.73;16.33;;;;;;;;;;343899;153;865033;-58
2021/12/16 03:06:15;;;;;;;35.63;15.82;;;;;;;;;;345037;155;858997;-59
2021/12/16 03:07:17;;;;;;;36.71;17.01;;;;;;;;;;344344;151;857433;-58
2021/12/16 03:08:19;;;;;;;38.63;16.21;;;;;;;;;;343643;151;864629;-59
2021/12/16 03:09:32;;;;;;;37.05;15.86;;;;;;;;;;344697;153;857524;-58
2021/12/16 03:11:38;;;;;;;39.50;16.81;;;;;;;;;;340192;153;857716;-59
2021/12/16 03:12:58;;;;;;;34.87;16.06;;;;;;;;;;338550;155;865850;-58
2021/12/16 03:15:08;;;;;;;37.98;16.96;;;;;;;;;;339940;153;857116;-58
2021/12/16 03:17:17;;;;;;;39.80;17.16;;;;;;;;;;341204;157;859876;-58
2021/12/16 03:19:38;;;;;;;37.37;16.20;;;;;;;;;;343239;153;865066;-59
2021/12/16 03:20:42;;;;;;;39.58;16.00;;;;;;;;;;341184;153;857670;-59
2021/12/16 03:21:45;;;;;;;38.08;17.33;;;;;;;;;;343893;151;859334;-59
2021/12/16 03:24:05;;;;;;;36.68;15.91;;;;;;;;;;338563;158;857974;-59
2021/12/16 03:25:18;;;;;;;38.12;16.48;;;;;;;;;;340323;154;857305;-59
2021/12/16 03:36:07;;;;;;;37.71;16.28;;;;;;;;;;340734;153;864909;-59
2021/12/16 03:37:15;;;;;;;32.18;16.44;;;;;;;;;;341439;156;859855;-59
2021/12/16 03:38:16;;;;;;;27.25;14.11;;;;;;;;;;340068;157;858330;-59
2021/12/16 03:39:18;;;;;;;34.92;15.56;;;;;;;;;;339184;153;857433;-59
2021/12/16 03:40:20;;;;;;;37.47;16.29;;;;;;;;;;339625;154;864380;-59
2021/12/16 03:41:23;;;;;;;34.59;15.49;;;;;;;;;;337773;157;858841;-59
2021/12/16 03:42:30;;;;;;;35.81;16.27;;;;;;;;;;341126;153;858658;-59
2021/12/16 03:43:32;;;;;;;38.71;16.64;;;;;;;;;;338562;155;864601;-59
2021/12/16 03:44:53;;;;;;;41.17;16.30;;;;;;;;;;336148;159;857192;-58
2021/12/16 03:47:16;;;;;;;32.97;14.12;;;;;;;;;;352840;149;857253;-58
2021/12/16 03:48:19;;;;;;;35.57;15.91;;;;;;;;;;352665;152;857705;-58
2021/12/16 03:49:22;;;;;;;34.25;16.85;;;;;;;;;;353394;148;864418;-58
2021/12/16 03:50:24;;;;;;;36.87;15.48;;;;;;;;;;354133;148;859060;-58
2021/12/16 03:51:28;;;;;;;38.91;15.81;;;;;;;;;;350216;152;858069;-59
2021/12/16 03:52:29;;;;;;;41.42;17.44;;;;;;;;;;353847;152;865480;-58
2021/12/16 03:53:31;;;;;;;37.94;16.04;;;;;;;;;;352136;148;857279;-58
2021/12/16 03:54:34;;;;;;;35.96;15.47;;;;;;;;;;353116;149;865739;-58
2021/12/16 03:55:36;;;;;;;39.26;16.85;;;;;;;;;;349889;152;858838;-57
2021/12/16 03:56:38;;;;;;;40.94;17.34;;;;;;;;;;353205;152;857711;-58
2021/12/16 03:57:40;;;;;;;39.92;16.50;;;;;;;;;;353906;148;865636;-59
2021/12/16 03:58:41;;;;;;;40.17;17.74;;;;;;;;;;347089;152;858889;-59
2021/12/16 03:59:43;;;;;;;39.17;16.68;;;;;;;;;;346657;155;858565;-59
2021/12/16 04:00:46;;;;;;;43.79;16.57;;;;;;;;;;346702;151;857420;-59
2021/12/16 04:01:48;;;;;;;37.14;17.38;;;;;;;;;;344948;153;863384;-59
2021/12/16 04:02:49;;;;;;;42.32;17.75;;;;;;;;;;345753;155;859075;-58
2021/12/16 04:03:51;;;;;;;45.04;18.26;;;;;;;;;;346726;155;864086;-59
2021/12/16 04:04:53;;;;;;;46.02;18.13;;;;;;;;;;345421;152;864841;-58
2021/12/16 04:05:54;;;;;;;41.65;17.13;;;;;;;;;;336720;158;866199;-59
2021/12/16 04:06:56;;;;;;;41.84;17.67;;;;;;;;;;338770;154;857287;-59
2021/12/16 04:07:58;;;;;;;46.03;19.16;;;;;;;;;;338520;156;857853;-59
2021/12/16 04:08:59;;;;;;;44.83;17.71;;;;;;;;;;338350;158;861015;-59
2021/12/16 04:10:01;;;;;;;53.13;19.43;;;;;;;;;;343414;156;858310;-59
2021/12/16 04:11:06;;;;;;;42.89;18.42;;;;;;;;;;342402;153;858918;-59
2021/12/16 04:12:11;;;;;;;47.15;18.60;;;;;;;;;;343311;155;865507;-58
2021/12/16 04:13:13;;;;;;;48.25;19.30;;;;;;;;;;342940;156;857248;-59
2021/12/16 04:14:15;;;;;;;43.38;18.75;;;;;;;;;;342773;154;857446;-59
2021/12/16 04:15:17;;;;;;;48.98;18.46;;;;;;;;;;343038;154;864939;-58
2021/12/16 04:16:19;;;;;;;39.93;16.06;;;;;;;;;;342050;156;866751;-58
2021/12/16 04:17:22;;;;;;;47.77;19.76;;;;;;;;;;343046;156;859482;-58
2021/12/16 04:18:23;;;;;;;42.07;17.69;;;;;;;;;;341987;154;866740;-60
2021/12/16 04:19:25;;;;;;;41.20;16.03;;;;;;;;;;342354;155;858288;-58
2021/12/16 04:20:27;;;;;;;43.34;15.85;;;;;;;;;;342118;156;863157;-58
2021/12/16 04:21:29;;;;;;;45.91;18.27;;;;;;;;;;342316;153;856316;-58
2021/12/16 04:22:34;;;;;;;41.04;16.68;;;;;;;;;;343212;155;857650;-59
2021/12/16 04:23:35;;;;;;;39.95;17.34;;;;;;;;;;342994;156;857141;-58
2021/12/16 04:24:37;;;;;;;47.36;19.00;;;;;;;;;;343402;153;858932;-58
2021/12/16 04:25:41;;;;;;;47.07;19.18;;;;;;;;;;341611;154;867256;-58
2021/12/16 04:26:42;;;;;;;41.41;17.09;;;;;;;;;;342424;154;857303;-58
2021/12/16 04:27:44;;;;;;;43.29;18.23;;;;;;;;;;340201;156;864754;-58
2021/12/16 04:28:46;;;;;;;36.97;16.61;;;;;;;;;;343860;153;857238;-59
2021/12/16 04:29:48;;;;;;;44.56;17.84;;;;;;;;;;342687;154;858795;-59
2021/12/16 04:30:49;;;;;;;38.45;16.86;;;;;;;;;;342743;156;859134;-59
2021/12/16 04:31:52;;;;;;;39.55;17.34;;;;;;;;;;341869;153;858841;-59
2021/12/16 04:32:53;;;;;;;47.31;18.52;;;;;;;;;;341834;153;862392;-59
2021/12/16 04:33:55;;;;;;;41.43;18.31;;;;;;;;;;339719;156;857228;-59
2021/12/16 04:34:56;;;;;;;37.96;17.38;;;;;;;;;;341618;153;864832;-59
2021/12/16 04:35:58;;;;;;;42.29;17.54;;;;;;;;;;343401;154;859605;-59
2021/12/16 04:36:59;;;;;;;37.18;16.49;;;;;;;;;;346017;153;859076;-58
2021/12/16 04:38:01;;;;;;;43.61;17.63;;;;;;;;;;342432;156;859620;-58
2021/12/16 04:39:04;;;;;;;40.53;16.16;;;;;;;;;;341729;153;860022;-59
2021/12/16 04:40:08;;;;;;;41.06;18.75;;;;;;;;;;342019;154;865448;-56
2021/12/16 04:41:11;;;;;;;43.56;18.52;;;;;;;;;;341028;156;859457;-59
2021/12/16 04:42:13;;;;;;;45.21;18.39;;;;;;;;;;342951;153;859378;-59
2021/12/16 04:43:21;;;;;;;42.93;18.33;;;;;;;;;;343022;153;858740;-58
2021/12/16 04:44:21;;;;;;;46.82;18.53;;;;;;;;;;340598;156;858853;-59
2021/12/16 04:45:23;;;;;;;49.32;19.28;;;;;;;;;;338826;153;857779;-59
2021/12/16 04:46:26;;;;;;;40.58;17.03;;;;;;;;;;343057;153;865055;-59
2021/12/16 04:47:29;;;;;;;44.43;19.08;;;;;;;;;;342022;156;863973;-59
2021/12/16 04:48:31;;;;;;;45.04;18.14;;;;;;;;;;335433;159;858121;-59
2021/12/16 04:49:33;;;;;;;46.24;20.27;;;;;;;;;;344518;151;858831;-59
2021/12/16 04:50:34;;;;;;;38.74;16.89;;;;;;;;;;342235;154;867002;-59
2021/12/16 04:51:37;;;;;;;38.04;17.38;;;;;;;;;;343139;156;864984;-59
2021/12/16 04:52:38;;;;;;;36.12;17.68;;;;;;;;;;344108;151;857145;-58
2021/12/16 04:53:40;;;;;;;46.16;18.91;;;;;;;;;;343875;152;857217;-59
2021/12/16 04:54:41;;;;;;;40.83;16.26;;;;;;;;;;353682;141;864761;-59
2021/12/16 04:55:43;;;;;;;43.13;17.74;;;;;;;;;;347860;150;857648;-58
2021/12/16 04:56:45;;;;;;;40.20;17.91;;;;;;;;;;349064;151;864979;-57
2021/12/16 04:57:47;;;;;;;41.74;18.31;;;;;;;;;;348811;151;864807;-58
2021/12/16 04:58:49;;;;;;;43.10;18.53;;;;;;;;;;348935;153;857341;-58
2021/12/16 04:59:50;;;;;;;42.97;18.62;;;;;;;;;;350883;150;857280;-58
2021/12/16 05:00:52;;;;;;;43.24;18.76;;;;;;;;;;355763;148;857286;-58
2021/12/16 05:01:55;;;;;;;40.11;16.59;;;;;;;;;;349977;153;866536;-61
2021/12/16 05:02:57;;;;;;;46.16;18.08;;;;;;;;;;350752;151;858992;-60
2021/12/16 05:03:59;;;;;;;46.18;18.89;;;;;;;;;;348929;151;857954;-60
2021/12/16 05:05:00;;;;;;;46.01;18.41;;;;;;;;;;348502;153;865065;-58
2021/12/16 05:06:02;;;;;;;47.98;19.13;;;;;;;;;;348724;153;857322;-58
2021/12/16 05:07:04;;;;;;;45.74;18.55;;;;;;;;;;348326;151;859096;-59
2021/12/16 05:08:06;;;;;;;39.78;17.63;;;;;;;;;;349541;151;857300;-59
2021/12/16 05:09:08;;;;;;;47.07;18.91;;;;;;;;;;348722;153;859313;-58
2021/12/16 05:10:12;;;;;;;50.73;18.94;;;;;;;;;;348244;153;858339;-58
2021/12/16 05:11:14;;;;;;;47.29;18.79;;;;;;;;;;347064;151;857387;-59
2021/12/16 05:12:17;;;;;;;47.39;19.03;;;;;;;;;;349968;151;857294;-58
2021/12/16 05:13:22;;;;;;;44.03;18.22;;;;;;;;;;346996;153;857500;-59
2021/12/16 05:14:22;;;;;;;39.91;18.76;;;;;;;;;;348865;151;856577;-58
2021/12/16 05:15:30;;;;;;;42.64;18.48;;;;;;;;;;346855;153;857194;-58
2021/12/16 05:16:31;;;;;;;42.18;18.38;;;;;;;;;;348608;153;865174;-59
2021/12/16 05:17:39;;;;;;;46.59;19.48;;;;;;;;;;349982;153;857678;-58
2021/12/16 05:18:37;;;;;;;47.96;18.74;;;;;;;;;;349797;151;865394;-59
2021/12/16 05:19:48;;;;;;;49.70;20.27;;;;;;;;;;349207;153;858948;-59
2021/12/16 05:20:44;;;;;;;43.20;18.89;;;;;;;;;;348844;151;859212;-59
2021/12/16 05:21:56;;;;;;;42.86;18.05;;;;;;;;;;346780;153;866498;-59
2021/12/16 05:24:17;;;;;;;47.37;18.88;;;;;;;;;;349056;151;858149;-60
2021/12/16 05:25:30;;;;;;;41.11;18.50;;;;;;;;;;347259;151;859650;-58
2021/12/16 05:26:23;;;;;;;47.80;18.77;;;;;;;;;;346651;153;857724;-59
2021/12/16 05:27:24;;;;;;;50.42;18.91;;;;;;;;;;346967;151;858670;-59
2021/12/16 05:28:26;;;;;;;42.29;17.73;;;;;;;;;;350131;151;864365;-59
2021/12/16 05:29:27;;;;;;;40.56;18.32;;;;;;;;;;347840;153;857256;-60
2021/12/16 05:30:30;;;;;;;40.63;17.61;;;;;;;;;;348432;153;857820;-58
2021/12/16 05:31:32;;;;;;;44.93;19.09;;;;;;;;;;348758;151;858840;-58
2021/12/16 05:32:33;;;;;;;45.69;19.80;;;;;;;;;;348977;153;857269;-59
2021/12/16 05:33:35;;;;;;;45.59;19.31;;;;;;;;;;348172;153;865547;-59
2021/12/16 05:34:37;;;;;;;45.48;20.01;;;;;;;;;;347139;153;863950;-59
2021/12/16 05:35:38;;;;;;;46.14;18.86;;;;;;;;;;349998;151;857258;-59
2021/12/16 05:36:40;;;;;;;43.67;19.46;;;;;;;;;;347678;150;859935;-59
2021/12/16 05:37:43;;;;;;;43.85;18.59;;;;;;;;;;347988;150;857723;-58
2021/12/16 05:38:44;;;;;;;47.55;19.31;;;;;;;;;;347559;150;859734;-57
2021/12/16 05:39:46;;;;;;;44.22;19.69;;;;;;;;;;346489;151;857275;-58
2021/12/16 05:40:48;;;;;;;46.11;18.90;;;;;;;;;;347652;153;857388;-59
2021/12/16 05:41:49;;;;;;;41.57;18.10;;;;;;;;;;348102;152;866730;-58
2021/12/16 05:42:55;;;;;;;43.51;17.81;;;;;;;;;;347327;153;857329;-58
2021/12/16 05:43:56;;;;;;;48.01;17.51;;;;;;;;;;346892;153;859536;-58
2021/12/16 05:44:58;;;;;;;42.52;18.91;;;;;;;;;;354278;151;858653;-59
2021/12/16 05:46:00;;;;;;;43.81;18.90;;;;;;;;;;355124;149;859043;-60
2021/12/16 05:47:01;;;;;;;51.61;19.72;;;;;;;;;;354604;151;866249;-60
2021/12/16 05:48:04;;;;;;;46.01;18.99;;;;;;;;;;354359;151;858110;-59
2021/12/16 05:49:06;;;;;;;46.03;19.33;;;;;;;;;;354635;149;864802;-61
2021/12/16 05:50:08;;;;;;;48.21;19.64;;;;;;;;;;354251;148;858529;-60
2021/12/16 05:51:18;;;;;;;45.82;18.89;;;;;;;;;;353612;148;860138;-62
2021/12/16 05:52:19;;;;;;;41.38;17.64;;;;;;;;;;353010;148;865033;-62
2021/12/16 05:53:21;;;;;;;42.20;18.15;;;;;;;;;;355556;148;857749;-62
2021/12/16 05:54:23;;;;;;;44.74;18.56;;;;;;;;;;353248;148;866771;-62
2021/12/16 05:55:26;;;;;;;45.29;18.56;;;;;;;;;;352982;148;857473;-60
2021/12/16 05:56:28;;;;;;;34.13;15.86;;;;;;;;;;348286;151;856963;-62
2021/12/16 05:57:29;;;;;;;43.67;19.30;;;;;;;;;;348385;151;865025;-56
2021/12/16 05:58:31;;;;;;;40.84;17.51;;;;;;;;;;346975;153;865889;-58
2021/12/16 05:59:33;;;;;;;42.34;18.60;;;;;;;;;;348596;152;858675;-59
2021/12/16 06:00:35;;;;;;;43.09;18.76;;;;;;;;;;347724;151;865514;-57
2021/12/16 06:01:38;;;;;;;46.95;20.22;;;;;;;;;;348686;151;863957;-57
2021/12/16 06:02:40;;;;;;;44.83;19.70;;;;;;;;;;348781;150;859247;-58
2021/12/16 06:03:42;;;;;;;42.93;19.99;;;;;;;;;;347605;151;856816;-58
2021/12/16 06:04:43;;;;;;;41.13;17.77;;;;;;;;;;348878;150;858887;-57
2021/12/16 06:05:45;;;;;;;44.05;19.26;;;;;;;;;;349014;150;857305;-57
2021/12/16 06:06:47;;;;;;;47.39;20.44;;;;;;;;;;347808;151;865068;-58
2021/12/16 06:07:48;;;;;;;48.09;19.64;;;;;;;;;;348635;153;865029;-57
2021/12/16 06:08:50;;;;;;;50.39;19.32;;;;;;;;;;347823;153;865690;-57
2021/12/16 06:09:52;;;;;;;41.14;17.21;;;;;;;;;;349062;152;858781;-56
2021/12/16 06:12:08;;;;;;;43.70;19.43;;;;;;;;;;349268;153;857693;-56
2021/12/16 06:13:09;;;;;;;50.63;21.19;;;;;;;;;;348959;153;859204;-57
2021/12/16 06:14:40;;;;;;;38.73;15.90;;;;;;;;;;347727;151;857138;-56
2021/12/16 06:22:25;;;;;;;37.97;16.47;;;;;;;;;;353378;149;858835;-55
2021/12/16 06:27:13;;;;;;;34.80;14.37;;;;;;;;;;345838;154;865521;-56
2021/12/16 06:28:14;;;;;;;39.64;16.61;;;;;;;;;;353464;149;859229;-56
2021/12/16 06:29:15;;;;;;;37.96;15.54;;;;;;;;;;351759;148;859248;-57
2021/12/16 06:30:19;;;;;;;36.66;17.65;;;;;;;;;;353937;148;864411;-55
2021/12/16 06:31:21;;;;;;;39.79;16.29;;;;;;;;;;353443;148;858911;-55
2021/12/16 06:32:23;;;;;;;27.85;11.83;;;;;;;;;;349043;153;857270;-56
2021/12/16 06:33:24;;;;;;;36.65;14.34;;;;;;;;;;347274;152;857733;-56
2021/12/16 06:34:26;;;;;;;30.06;13.38;;;;;;;;;;348526;150;856583;-57
2021/12/16 06:35:27;;;;;;;29.84;13.21;;;;;;;;;;348917;151;863901;-57
2021/12/16 06:36:29;;;;;;;33.87;14.33;;;;;;;;;;349918;151;856719;-62
2021/12/16 06:37:30;;;;;;;36.04;15.19;;;;;;;;;;350672;153;861036;-61
2021/12/16 06:38:32;;;;;;;31.39;14.76;;;;;;;;;;349280;151;862216;-57
2021/12/16 06:39:33;;;;;;;29.31;12.82;;;;;;;;;;348086;153;857435;-57
2021/12/16 06:40:35;;;;;;;35.66;15.76;;;;;;;;;;349409;152;861468;-56
2021/12/16 06:41:38;;;;;;;34.10;14.54;;;;;;;;;;347778;153;856491;-55
2021/12/16 06:42:41;;;;;;;35.94;14.47;;;;;;;;;;348342;152;867359;-58
2021/12/16 06:43:44;;;;;;;31.56;15.61;;;;;;;;;;349570;152;856839;-56
2021/12/16 06:45:04;;;;;;;36.32;16.25;;;;;;;;;;348154;153;857030;-58
2021/12/16 06:45:59;;;;;;;29.28;13.19;;;;;;;;;;346064;151;863953;-57
2021/12/16 06:47:07;;;;;;;26.96;11.50;;;;;;;;;;348544;153;856917;-57
2021/12/16 06:48:10;;;;;;;34.83;15.82;;;;;;;;;;347943;152;856804;-58
2021/12/16 06:49:10;;;;;;;36.84;16.40;;;;;;;;;;348016;152;856072;-57
2021/12/16 06:50:14;;;;;;;32.09;15.99;;;;;;;;;;347219;151;863799;-57
2021/12/16 06:51:22;;;;;;;36.98;15.29;;;;;;;;;;347111;153;863720;-56
2021/12/16 06:52:22;;;;;;;39.76;15.73;;;;;;;;;;347197;151;856043;-57
2021/12/16 06:53:30;;;;;;;34.24;14.86;;;;;;;;;;346657;151;856568;-57
2021/12/16 06:54:35;;;;;;;36.83;16.19;;;;;;;;;;347982;153;856660;-57
2021/12/16 06:55:44;;;;;;;35.52;17.16;;;;;;;;;;349186;153;856563;-57
2021/12/16 06:56:52;;;;;;;30.09;15.42;;;;;;;;;;346818;151;863958;-57
2021/12/16 06:57:52;;;;;;;35.31;15.85;;;;;;;;;;348153;151;856396;-56
2021/12/16 06:59:01;;;;;;;28.69;13.44;;;;;;;;;;347891;151;857322;-57
2021/12/16 07:00:05;;;;;;;29.72;14.27;;;;;;;;;;347609;151;856597;-57
2021/12/16 07:01:12;;;;;;;32.41;13.52;;;;;;;;;;348601;151;856286;-56
2021/12/16 07:02:15;;;;;;;29.96;13.97;;;;;;;;;;348188;153;856694;-56
2021/12/16 07:03:23;;;;;;;32.48;14.99;;;;;;;;;;348102;153;856001;-56
2021/12/16 07:04:24;;;;;;;35.44;15.50;;;;;;;;;;349589;151;856258;-56
2021/12/16 07:05:27;;;;;;;34.31;15.73;;;;;;;;;;349983;153;856521;-57
2021/12/16 07:06:30;;;;;;;36.12;15.39;;;;;;;;;;346121;151;863952;-56
2021/12/16 07:07:32;;;;;;;37.42;15.10;;;;;;;;;;348006;151;856550;-57
2021/12/16 07:08:33;;;;;;;34.01;15.72;;;;;;;;;;347388;153;856648;-57
2021/12/16 07:09:35;;;;;;;33.01;15.44;;;;;;;;;;346434;153;863882;-56
2021/12/16 07:10:37;;;;;;;33.59;15.96;;;;;;;;;;347887;153;856760;-57
2021/12/16 07:11:41;;;;;;;33.22;15.91;;;;;;;;;;350817;153;856267;-57
2021/12/16 07:12:48;;;;;;;35.54;15.89;;;;;;;;;;346994;153;863874;-57
2021/12/16 07:13:56;;;;;;;32.87;15.01;;;;;;;;;;347073;153;856546;-58
2021/12/16 07:14:49;;;;;;;32.38;14.28;;;;;;;;;;348673;151;856216;-58
2021/12/16 07:15:51;;;;;;;29.16;12.04;;;;;;;;;;349903;153;863778;-57
2021/12/16 07:16:56;;;;;;;30.27;14.87;;;;;;;;;;348731;153;864608;-58
2021/12/16 07:17:57;;;;;;;33.65;14.65;;;;;;;;;;348841;153;864477;-58
2021/12/16 07:18:58;;;;;;;33.99;14.38;;;;;;;;;;347507;151;856888;-57
2021/12/16 07:20:00;;;;;;;32.93;15.71;;;;;;;;;;349747;153;863938;-58
2021/12/16 07:21:02;;;;;;;41.59;16.29;;;;;;;;;;350448;153;856778;-57
2021/12/16 07:22:04;;;;;;;35.37;15.54;;;;;;;;;;349254;151;863852;-57
2021/12/16 07:23:06;;;;;;;31.29;15.22;;;;;;;;;;347580;152;864376;-57
2021/12/16 07:24:07;;;;;;;35.61;15.86;;;;;;;;;;346826;153;856121;-57
2021/12/16 07:25:09;;;;;;;33.01;15.10;;;;;;;;;;350145;153;856090;-58
2021/12/16 07:26:11;;;;;;;30.76;14.84;;;;;;;;;;348598;151;857025;-57
2021/12/16 07:27:13;;;;;;;30.11;12.37;;;;;;;;;;349346;153;856129;-59
2021/12/16 07:28:15;;;;;;;32.03;15.05;;;;;;;;;;349669;152;861424;-57
2021/12/16 07:29:16;;;;;;;30.74;13.27;;;;;;;;;;350486;152;856156;-58
2021/12/16 07:30:18;;;;;;;29.16;14.38;;;;;;;;;;348656;151;864641;-57
2021/12/16 07:31:20;;;;;;;34.41;14.59;;;;;;;;;;350406;153;856555;-58
2021/12/16 07:32:21;;;;;;;32.24;14.41;;;;;;;;;;350506;151;863991;-59
2021/12/16 07:33:23;;;;;;;25.04;13.51;;;;;;;;;;348264;151;856240;-58
2021/12/16 07:34:25;;;;;;;26.80;12.95;;;;;;;;;;348805;153;862285;-58
2021/12/16 07:35:26;;;;;;;31.57;13.22;;;;;;;;;;347986;152;856158;-57
2021/12/16 07:36:30;;;;;;;28.71;12.53;;;;;;;;;;348346;151;864510;-57
2021/12/16 07:37:31;;;;;;;22.86;9.75;;;;;;;;;;346876;153;856299;-58
2021/12/16 07:38:33;;;;;;;28.59;13.39;;;;;;;;;;351491;153;856036;-58
2021/12/16 07:39:42;;;;;;;28.99;13.54;;;;;;;;;;349633;153;864715;-62
2021/12/16 07:40:41;;;;;;;30.38;14.06;;;;;;;;;;348958;151;856189;-58
2021/12/16 07:41:46;;;;;;;31.91;14.59;;;;;;;;;;350878;153;856055;-58
2021/12/16 07:43:10;;;;;;;30.10;14.53;;;;;;;;;;349677;153;863938;-58
2021/12/16 07:44:09;;;;;;;34.03;14.90;;;;;;;;;;346198;151;863945;-58
2021/12/16 07:45:00;;;;;;;29.86;13.32;;;;;;;;;;349221;153;857312;-56
2021/12/16 07:46:02;;;;;;;29.37;13.88;;;;;;;;;;349490;153;856896;-57
2021/12/16 07:47:05;;;;;;;23.64;11.80;;;;;;;;;;349265;153;856769;-57
2021/12/16 07:48:07;;;;;;;25.27;12.04;;;;;;;;;;346571;151;856923;-57
2021/12/16 07:49:09;;;;;;;30.91;14.91;;;;;;;;;;347834;153;856685;-57
2021/12/16 07:50:12;;;;;;;32.78;14.51;;;;;;;;;;348320;153;856076;-58
2021/12/16 07:51:14;;;;;;;37.04;15.59;;;;;;;;;;349418;151;863943;-57
2021/12/16 07:52:16;;;;;;;31.72;15.26;;;;;;;;;;348453;153;856114;-58
2021/12/16 07:53:18;;;;;;;28.91;14.41;;;;;;;;;;349307;153;863817;-57
2021/12/16 07:54:19;;;;;;;23.25;12.24;;;;;;;;;;350423;152;863909;-57
2021/12/16 07:55:21;;;;;;;33.96;15.61;;;;;;;;;;346118;151;863717;-58
2021/12/16 07:56:23;;;;;;;32.51;14.96;;;;;;;;;;348814;153;864031;-56
2021/12/16 07:57:25;;;;;;;31.22;15.24;;;;;;;;;;348327;151;856015;-55
2021/12/16 07:58:26;;;;;;;30.55;14.59;;;;;;;;;;348696;151;856532;-57
2021/12/16 07:59:28;;;;;;;35.90;15.42;;;;;;;;;;350976;153;862276;-57
2021/12/16 08:00:33;;;;;;;39.71;16.18;;;;;;;;;;348370;153;863836;-58
2021/12/16 08:01:35;;;;;;;28.70;13.32;;;;;;;;;;349921;151;863898;-60
2021/12/16 08:02:37;;;;;;;35.17;15.12;;;;;;;;;;348754;151;856122;-56
2021/12/16 08:03:40;;;;;;;35.84;14.77;;;;;;;;;;348632;153;856436;-56
2021/12/16 08:04:44;;;;;;;34.91;14.54;;;;;;;;;;347558;153;856124;-56
2021/12/16 08:05:47;;;;;;;32.01;16.54;;;;;;;;;;348461;151;856213;-56
2021/12/16 08:06:50;;;;;;;35.54;15.96;;;;;;;;;;346738;153;856302;-56
2021/12/16 08:07:51;;;;;;;34.16;15.61;;;;;;;;;;348823;153;856962;-57
2021/12/16 08:08:55;;;;;;;34.50;15.32;;;;;;;;;;348920;150;856378;-57
2021/12/16 08:09:56;;;;;;;33.62;15.22;;;;;;;;;;348286;151;858560;-58
2021/12/16 08:10:58;;;;;;;37.52;16.45;;;;;;;;;;347314;153;856557;-57
2021/12/16 08:12:00;;;;;;;31.91;15.34;;;;;;;;;;349535;150;864142;-58
2021/12/16 08:13:01;;;;;;;36.01;15.20;;;;;;;;;;349540;151;863949;-56
2021/12/16 08:14:03;;;;;;;36.18;16.49;;;;;;;;;;348940;153;856154;-56
2021/12/16 08:15:05;;;;;;;32.72;14.43;;;;;;;;;;345942;153;856247;-59
2021/12/16 08:16:07;;;;;;;33.17;15.97;;;;;;;;;;343105;153;856204;-57
2021/12/16 08:17:09;;;;;;;30.09;15.03;;;;;;;;;;340589;153;856145;-57